sensor_id;sensor_type;location;lat;lon;timestamp;temperature;humidity
20457;DHT22;10387;51.102;6.848;2023-03-12T00:01:34;1.60;99.90
20457;DHT22;10387;51.102;6.848;2023-03-12T00:04:03;1.70;99.90
20457;DHT22;10387;51.102;6.848;2023-03-12T00:06:29;1.70;99.90
20457;DHT22;10387;51.102;6.848;2023-03-12T00:08:57;1.70;99.90
20457;DHT22;10387;51.102;6.848;2023-03-12T00:11:23;1.80;99.90
20457;DHT22;10387;51.102;6.848;2023-03-12T00:13:53;1.80;99.90
20457;DHT22;10387;51.102;6.848;2023-03-12T00:16:20;1.80;99.90
20457;DHT22;10387;51.102;6.848;2023-03-12T00:18:48;1.80;99.90
20457;DHT22;10387;51.102;6.848;2023-03-12T00:21:14;1.80;99.90
20457;DHT22;10387;51.102;6.848;2023-03-12T00:23:40;1.70;99.90
20457;DHT22;10387;51.102;6.848;2023-03-12T00:26:08;1.70;99.90
20457;DHT22;10387;51.102;6.848;2023-03-12T00:28:35;1.70;99.90
20457;DHT22;10387;51.102;6.848;2023-03-12T00:31:02;1.70;99.90
20457;DHT22;10387;51.102;6.848;2023-03-12T00:33:28;1.80;99.90
20457;DHT22;10387;51.102;6.848;2023-03-12T00:35:55;1.80;99.90
20457;DHT22;10387;51.102;6.848;2023-03-12T00:38:21;1.70;99.90
20457;DHT22;10387;51.102;6.848;2023-03-12T00:40:47;1.80;99.90
20457;DHT22;10387;51.102;6.848;2023-03-12T00:43:13;1.80;99.90
20457;DHT22;10387;51.102;6.848;2023-03-12T00:45:39;1.80;99.90
20457;DHT22;10387;51.102;6.848;2023-03-12T00:48:05;1.80;99.90
20457;DHT22;10387;51.102;6.848;2023-03-12T00:50:31;1.80;99.90
20457;DHT22;10387;51.102;6.848;2023-03-12T00:52:56;1.80;99.90
20457;DHT22;10387;51.102;6.848;2023-03-12T00:55:22;1.80;99.90
20457;DHT22;10387;51.102;6.848;2023-03-12T00:57:48;1.80;99.90
20457;DHT22;10387;51.102;6.848;2023-03-12T01:00:14;1.80;99.90
20457;DHT22;10387;51.102;6.848;2023-03-12T01:02:39;1.80;99.90
20457;DHT22;10387;51.102;6.848;2023-03-12T01:05:07;1.90;99.90
20457;DHT22;10387;51.102;6.848;2023-03-12T01:07:34;1.90;99.90
20457;DHT22;10387;51.102;6.848;2023-03-12T01:10:00;1.90;99.90
20457;DHT22;10387;51.102;6.848;2023-03-12T01:12:26;1.90;99.90
20457;DHT22;10387;51.102;6.848;2023-03-12T01:14:51;1.90;99.90
20457;DHT22;10387;51.102;6.848;2023-03-12T01:17:17;1.90;99.90
20457;DHT22;10387;51.102;6.848;2023-03-12T01:19:43;1.90;99.90
20457;DHT22;10387;51.102;6.848;2023-03-12T01:22:09;2.00;99.90
20457;DHT22;10387;51.102;6.848;2023-03-12T01:24:34;2.00;99.90
20457;DHT22;10387;51.102;6.848;2023-03-12T01:27:00;2.00;99.90
20457;DHT22;10387;51.102;6.848;2023-03-12T01:29:26;2.00;99.90
20457;DHT22;10387;51.102;6.848;2023-03-12T01:31:51;2.00;99.90
20457;DHT22;10387;51.102;6.848;2023-03-12T01:34:17;2.00;99.90
20457;DHT22;10387;51.102;6.848;2023-03-12T01:36:44;2.10;99.90
20457;DHT22;10387;51.102;6.848;2023-03-12T01:39:12;2.10;99.90
20457;DHT22;10387;51.102;6.848;2023-03-12T01:41:38;2.00;99.90
20457;DHT22;10387;51.102;6.848;2023-03-12T01:44:04;2.00;99.90
20457;DHT22;10387;51.102;6.848;2023-03-12T01:46:40;2.00;99.90
20457;DHT22;10387;51.102;6.848;2023-03-12T01:49:42;1.90;99.90
20457;DHT22;10387;51.102;6.848;2023-03-12T01:52:20;1.90;99.90
20457;DHT22;10387;51.102;6.848;2023-03-12T01:57:50;1.90;99.90
20457;DHT22;10387;51.102;6.848;2023-03-12T02:00:19;1.80;99.90
20457;DHT22;10387;51.102;6.848;2023-03-12T02:02:47;1.80;99.90
20457;DHT22;10387;51.102;6.848;2023-03-12T02:08:05;1.80;99.90
20457;DHT22;10387;51.102;6.848;2023-03-12T02:10:31;1.80;99.90
20457;DHT22;10387;51.102;6.848;2023-03-12T02:12:57;1.80;99.90
20457;DHT22;10387;51.102;6.848;2023-03-12T02:15:23;1.80;99.90
20457;DHT22;10387;51.102;6.848;2023-03-12T02:17:48;1.80;99.90
20457;DHT22;10387;51.102;6.848;2023-03-12T02:20:27;1.80;99.90
20457;DHT22;10387;51.102;6.848;2023-03-12T02:23:20;1.80;99.90
20457;DHT22;10387;51.102;6.848;2023-03-12T02:25:52;1.80;99.90
20457;DHT22;10387;51.102;6.848;2023-03-12T02:28:20;1.80;99.90
20457;DHT22;10387;51.102;6.848;2023-03-12T02:30:49;1.80;99.90
20457;DHT22;10387;51.102;6.848;2023-03-12T02:33:16;1.90;99.90
20457;DHT22;10387;51.102;6.848;2023-03-12T02:35:42;1.90;99.90
20457;DHT22;10387;51.102;6.848;2023-03-12T02:38:36;1.90;99.90
20457;DHT22;10387;51.102;6.848;2023-03-12T02:41:34;2.00;99.90
20457;DHT22;10387;51.102;6.848;2023-03-12T02:44:18;2.00;99.90
20457;DHT22;10387;51.102;6.848;2023-03-12T02:46:49;2.00;99.90
20457;DHT22;10387;51.102;6.848;2023-03-12T02:49:17;2.00;99.90
20457;DHT22;10387;51.102;6.848;2023-03-12T02:51:45;2.00;99.90
20457;DHT22;10387;51.102;6.848;2023-03-12T02:54:12;2.00;99.90
20457;DHT22;10387;51.102;6.848;2023-03-12T02:56:39;1.90;99.90
20457;DHT22;10387;51.102;6.848;2023-03-12T02:59:05;2.00;99.90
20457;DHT22;10387;51.102;6.848;2023-03-12T03:01:35;2.00;99.90
20457;DHT22;10387;51.102;6.848;2023-03-12T03:04:01;2.00;99.90
20457;DHT22;10387;51.102;6.848;2023-03-12T03:06:28;2.00;99.90
20457;DHT22;10387;51.102;6.848;2023-03-12T03:08:54;2.00;99.90
20457;DHT22;10387;51.102;6.848;2023-03-12T03:11:20;2.00;99.90
20457;DHT22;10387;51.102;6.848;2023-03-12T03:13:51;2.00;99.90
20457;DHT22;10387;51.102;6.848;2023-03-12T03:16:17;2.00;99.90
20457;DHT22;10387;51.102;6.848;2023-03-12T03:18:43;2.00;99.90
20457;DHT22;10387;51.102;6.848;2023-03-12T03:21:10;2.00;99.90
20457;DHT22;10387;51.102;6.848;2023-03-12T03:23:44;2.00;99.90
20457;DHT22;10387;51.102;6.848;2023-03-12T03:26:10;2.00;99.90
20457;DHT22;10387;51.102;6.848;2023-03-12T03:28:36;2.00;99.90
20457;DHT22;10387;51.102;6.848;2023-03-12T03:31:02;2.00;99.90
20457;DHT22;10387;51.102;6.848;2023-03-12T03:33:34;2.00;99.90
20457;DHT22;10387;51.102;6.848;2023-03-12T03:36:02;2.10;99.90
20457;DHT22;10387;51.102;6.848;2023-03-12T03:38:30;2.10;99.90
20457;DHT22;10387;51.102;6.848;2023-03-12T03:40:57;2.10;99.90
20457;DHT22;10387;51.102;6.848;2023-03-12T03:43:24;2.10;99.90
20457;DHT22;10387;51.102;6.848;2023-03-12T03:45:57;2.10;99.90
20457;DHT22;10387;51.102;6.848;2023-03-12T03:48:24;2.10;99.90
20457;DHT22;10387;51.102;6.848;2023-03-12T03:50:50;2.10;99.90
20457;DHT22;10387;51.102;6.848;2023-03-12T03:53:16;2.10;99.90
20457;DHT22;10387;51.102;6.848;2023-03-12T03:55:44;2.10;99.90
20457;DHT22;10387;51.102;6.848;2023-03-12T03:58:11;2.10;99.90
20457;DHT22;10387;51.102;6.848;2023-03-12T04:00:37;2.10;99.90
20457;DHT22;10387;51.102;6.848;2023-03-12T04:03:03;2.10;99.90
20457;DHT22;10387;51.102;6.848;2023-03-12T04:05:29;2.10;99.90
20457;DHT22;10387;51.102;6.848;2023-03-12T04:07:55;2.10;99.90
20457;DHT22;10387;51.102;6.848;2023-03-12T04:10:24;2.10;99.90
20457;DHT22;10387;51.102;6.848;2023-03-12T04:12:50;2.20;99.90
20457;DHT22;10387;51.102;6.848;2023-03-12T04:15:17;2.20;99.90
20457;DHT22;10387;51.102;6.848;2023-03-12T04:17:44;2.20;99.90
20457;DHT22;10387;51.102;6.848;2023-03-12T04:20:10;2.20;99.90
20457;DHT22;10387;51.102;6.848;2023-03-12T04:22:38;2.20;99.90
20457;DHT22;10387;51.102;6.848;2023-03-12T04:25:05;2.30;99.90
20457;DHT22;10387;51.102;6.848;2023-03-12T04:27:33;2.30;99.90
20457;DHT22;10387;51.102;6.848;2023-03-12T04:29:58;2.30;99.90
20457;DHT22;10387;51.102;6.848;2023-03-12T04:32:24;2.30;99.90
20457;DHT22;10387;51.102;6.848;2023-03-12T04:34:50;2.30;99.90
20457;DHT22;10387;51.102;6.848;2023-03-12T04:37:17;2.30;99.90
20457;DHT22;10387;51.102;6.848;2023-03-12T04:39:44;2.30;99.90
20457;DHT22;10387;51.102;6.848;2023-03-12T04:42:11;2.30;99.90
20457;DHT22;10387;51.102;6.848;2023-03-12T04:44:40;2.30;99.90
20457;DHT22;10387;51.102;6.848;2023-03-12T04:47:07;2.40;99.90
20457;DHT22;10387;51.102;6.848;2023-03-12T04:49:33;2.40;99.90
20457;DHT22;10387;51.102;6.848;2023-03-12T04:52:00;2.40;99.90
20457;DHT22;10387;51.102;6.848;2023-03-12T04:54:28;2.40;99.90
20457;DHT22;10387;51.102;6.848;2023-03-12T04:56:57;2.40;99.90
20457;DHT22;10387;51.102;6.848;2023-03-12T04:59:26;2.40;99.90
20457;DHT22;10387;51.102;6.848;2023-03-12T05:01:54;2.40;99.90
20457;DHT22;10387;51.102;6.848;2023-03-12T05:04:25;2.40;99.90
20457;DHT22;10387;51.102;6.848;2023-03-12T05:06:53;2.40;99.90
20457;DHT22;10387;51.102;6.848;2023-03-12T05:09:19;2.40;99.90
20457;DHT22;10387;51.102;6.848;2023-03-12T05:11:46;2.40;99.90
20457;DHT22;10387;51.102;6.848;2023-03-12T05:14:16;2.40;99.90
20457;DHT22;10387;51.102;6.848;2023-03-12T05:16:45;2.40;99.90
20457;DHT22;10387;51.102;6.848;2023-03-12T05:19:11;2.40;99.90
20457;DHT22;10387;51.102;6.848;2023-03-12T05:21:39;2.40;99.90
20457;DHT22;10387;51.102;6.848;2023-03-12T05:24:09;2.40;99.90
20457;DHT22;10387;51.102;6.848;2023-03-12T05:26:35;2.40;99.90
20457;DHT22;10387;51.102;6.848;2023-03-12T05:29:09;2.40;99.90
20457;DHT22;10387;51.102;6.848;2023-03-12T05:31:37;2.40;99.90
20457;DHT22;10387;51.102;6.848;2023-03-12T05:34:27;2.30;99.90
20457;DHT22;10387;51.102;6.848;2023-03-12T05:36:57;2.30;99.90
20457;DHT22;10387;51.102;6.848;2023-03-12T05:39:26;2.30;99.90
20457;DHT22;10387;51.102;6.848;2023-03-12T05:42:00;2.30;99.90
20457;DHT22;10387;51.102;6.848;2023-03-12T05:44:31;2.30;99.90
20457;DHT22;10387;51.102;6.848;2023-03-12T05:47:25;2.30;99.90
20457;DHT22;10387;51.102;6.848;2023-03-12T05:49:51;2.40;99.90
20457;DHT22;10387;51.102;6.848;2023-03-12T05:52:18;2.40;99.90
20457;DHT22;10387;51.102;6.848;2023-03-12T05:54:44;2.40;99.90
20457;DHT22;10387;51.102;6.848;2023-03-12T05:57:13;2.40;99.90
20457;DHT22;10387;51.102;6.848;2023-03-12T05:59:40;2.40;99.90
20457;DHT22;10387;51.102;6.848;2023-03-12T06:02:08;2.40;99.90
20457;DHT22;10387;51.102;6.848;2023-03-12T06:04:35;2.40;99.90
20457;DHT22;10387;51.102;6.848;2023-03-12T06:07:09;2.30;99.90
20457;DHT22;10387;51.102;6.848;2023-03-12T06:09:37;2.30;99.90
20457;DHT22;10387;51.102;6.848;2023-03-12T06:12:03;2.30;99.90
20457;DHT22;10387;51.102;6.848;2023-03-12T06:14:29;2.20;99.90
20457;DHT22;10387;51.102;6.848;2023-03-12T06:16:59;2.20;99.90
20457;DHT22;10387;51.102;6.848;2023-03-12T06:19:28;2.10;99.90
20457;DHT22;10387;51.102;6.848;2023-03-12T06:21:54;2.10;99.90
20457;DHT22;10387;51.102;6.848;2023-03-12T06:24:20;2.00;99.90
20457;DHT22;10387;51.102;6.848;2023-03-12T06:26:54;2.00;99.90
20457;DHT22;10387;51.102;6.848;2023-03-12T06:29:21;2.00;99.90
20457;DHT22;10387;51.102;6.848;2023-03-12T06:31:47;2.00;99.90
20457;DHT22;10387;51.102;6.848;2023-03-12T06:34:16;2.00;99.90
20457;DHT22;10387;51.102;6.848;2023-03-12T06:36:44;2.00;99.90
20457;DHT22;10387;51.102;6.848;2023-03-12T06:39:13;2.00;99.90
20457;DHT22;10387;51.102;6.848;2023-03-12T06:41:39;2.10;99.90
20457;DHT22;10387;51.102;6.848;2023-03-12T06:44:06;2.10;99.90
20457;DHT22;10387;51.102;6.848;2023-03-12T06:46:33;2.10;99.90
20457;DHT22;10387;51.102;6.848;2023-03-12T06:48:59;2.10;99.90
20457;DHT22;10387;51.102;6.848;2023-03-12T06:51:26;2.20;99.90
20457;DHT22;10387;51.102;6.848;2023-03-12T06:53:51;2.30;99.90
20457;DHT22;10387;51.102;6.848;2023-03-12T06:56:17;2.30;99.90
20457;DHT22;10387;51.102;6.848;2023-03-12T06:58:43;2.40;99.90
20457;DHT22;10387;51.102;6.848;2023-03-12T07:01:10;2.40;99.90
20457;DHT22;10387;51.102;6.848;2023-03-12T07:03:36;2.50;99.90
20457;DHT22;10387;51.102;6.848;2023-03-12T07:06:02;2.50;99.90
20457;DHT22;10387;51.102;6.848;2023-03-12T07:08:28;2.60;99.90
20457;DHT22;10387;51.102;6.848;2023-03-12T07:10:57;2.60;99.90
20457;DHT22;10387;51.102;6.848;2023-03-12T07:13:24;2.60;99.90
20457;DHT22;10387;51.102;6.848;2023-03-12T07:15:50;2.70;99.90
20457;DHT22;10387;51.102;6.848;2023-03-12T07:18:16;2.70;99.90
20457;DHT22;10387;51.102;6.848;2023-03-12T07:20:42;2.70;99.90
20457;DHT22;10387;51.102;6.848;2023-03-12T07:23:09;2.70;99.90
20457;DHT22;10387;51.102;6.848;2023-03-12T07:25:36;2.70;99.90
20457;DHT22;10387;51.102;6.848;2023-03-12T07:28:02;2.70;99.90
20457;DHT22;10387;51.102;6.848;2023-03-12T07:30:28;2.70;99.90
20457;DHT22;10387;51.102;6.848;2023-03-12T07:33:05;2.70;99.90
20457;DHT22;10387;51.102;6.848;2023-03-12T07:35:31;2.80;99.90
20457;DHT22;10387;51.102;6.848;2023-03-12T07:37:58;2.80;99.90
20457;DHT22;10387;51.102;6.848;2023-03-12T07:40:24;2.90;99.90
20457;DHT22;10387;51.102;6.848;2023-03-12T07:42:50;2.90;99.90
20457;DHT22;10387;51.102;6.848;2023-03-12T07:45:17;2.90;99.90
20457;DHT22;10387;51.102;6.848;2023-03-12T07:47:43;2.90;99.90
20457;DHT22;10387;51.102;6.848;2023-03-12T07:50:09;2.90;99.90
20457;DHT22;10387;51.102;6.848;2023-03-12T07:52:35;3.00;99.90
20457;DHT22;10387;51.102;6.848;2023-03-12T07:55:00;3.00;99.90
20457;DHT22;10387;51.102;6.848;2023-03-12T07:57:26;3.10;99.90
20457;DHT22;10387;51.102;6.848;2023-03-12T07:59:52;3.10;99.90
20457;DHT22;10387;51.102;6.848;2023-03-12T08:02:17;3.20;99.90
20457;DHT22;10387;51.102;6.848;2023-03-12T08:04:44;3.30;99.90
20457;DHT22;10387;51.102;6.848;2023-03-12T08:07:10;3.30;99.90
20457;DHT22;10387;51.102;6.848;2023-03-12T08:09:37;3.30;99.90
20457;DHT22;10387;51.102;6.848;2023-03-12T08:12:07;3.30;99.90
20457;DHT22;10387;51.102;6.848;2023-03-12T08:14:33;3.50;99.90
20457;DHT22;10387;51.102;6.848;2023-03-12T08:17:00;3.40;99.90
20457;DHT22;10387;51.102;6.848;2023-03-12T08:19:26;3.40;99.90
20457;DHT22;10387;51.102;6.848;2023-03-12T08:21:53;3.50;99.90
20457;DHT22;10387;51.102;6.848;2023-03-12T08:24:20;3.50;99.90
20457;DHT22;10387;51.102;6.848;2023-03-12T08:26:46;3.50;99.90
20457;DHT22;10387;51.102;6.848;2023-03-12T08:29:12;3.60;99.90
20457;DHT22;10387;51.102;6.848;2023-03-12T08:31:37;3.60;99.90
20457;DHT22;10387;51.102;6.848;2023-03-12T08:34:03;3.60;99.90
20457;DHT22;10387;51.102;6.848;2023-03-12T08:36:30;3.70;99.90
20457;DHT22;10387;51.102;6.848;2023-03-12T08:38:55;3.80;99.90
20457;DHT22;10387;51.102;6.848;2023-03-12T08:41:21;3.80;99.90
20457;DHT22;10387;51.102;6.848;2023-03-12T08:43:47;3.80;99.90
20457;DHT22;10387;51.102;6.848;2023-03-12T08:46:12;3.80;99.90
20457;DHT22;10387;51.102;6.848;2023-03-12T08:48:38;3.80;99.90
20457;DHT22;10387;51.102;6.848;2023-03-12T08:51:05;3.80;99.90
20457;DHT22;10387;51.102;6.848;2023-03-12T08:53:34;3.80;99.90
20457;DHT22;10387;51.102;6.848;2023-03-12T08:56:01;3.80;99.90
20457;DHT22;10387;51.102;6.848;2023-03-12T08:58:27;3.80;99.90
20457;DHT22;10387;51.102;6.848;2023-03-12T09:00:54;3.80;99.90
20457;DHT22;10387;51.102;6.848;2023-03-12T09:03:21;3.90;99.90
20457;DHT22;10387;51.102;6.848;2023-03-12T09:05:47;3.90;99.90
20457;DHT22;10387;51.102;6.848;2023-03-12T09:08:13;3.90;99.90
20457;DHT22;10387;51.102;6.848;2023-03-12T09:10:40;3.90;99.90
20457;DHT22;10387;51.102;6.848;2023-03-12T09:13:11;3.90;99.90
20457;DHT22;10387;51.102;6.848;2023-03-12T09:15:37;4.10;99.90
20457;DHT22;10387;51.102;6.848;2023-03-12T09:18:03;4.20;99.90
20457;DHT22;10387;51.102;6.848;2023-03-12T09:20:28;4.10;99.90
20457;DHT22;10387;51.102;6.848;2023-03-12T09:22:54;4.20;99.90
20457;DHT22;10387;51.102;6.848;2023-03-12T09:25:20;4.20;99.90
20457;DHT22;10387;51.102;6.848;2023-03-12T09:27:48;4.20;99.90
20457;DHT22;10387;51.102;6.848;2023-03-12T09:30:18;4.20;99.90
20457;DHT22;10387;51.102;6.848;2023-03-12T09:32:45;4.20;99.90
20457;DHT22;10387;51.102;6.848;2023-03-12T09:35:11;4.30;99.90
20457;DHT22;10387;51.102;6.848;2023-03-12T09:37:37;4.30;99.90
20457;DHT22;10387;51.102;6.848;2023-03-12T09:40:04;4.40;99.90
20457;DHT22;10387;51.102;6.848;2023-03-12T09:45:23;4.40;99.90
20457;DHT22;10387;51.102;6.848;2023-03-12T09:47:53;4.40;99.90
20457;DHT22;10387;51.102;6.848;2023-03-12T09:50:24;4.50;99.90
20457;DHT22;10387;51.102;6.848;2023-03-12T09:53:00;4.40;99.90
20457;DHT22;10387;51.102;6.848;2023-03-12T09:55:34;4.40;99.90
20457;DHT22;10387;51.102;6.848;2023-03-12T09:58:00;4.50;99.90
20457;DHT22;10387;51.102;6.848;2023-03-12T10:00:32;4.50;99.90
20457;DHT22;10387;51.102;6.848;2023-03-12T10:11:04;4.60;99.90
20457;DHT22;10387;51.102;6.848;2023-03-12T10:13:45;4.70;99.90
20457;DHT22;10387;51.102;6.848;2023-03-12T10:21:59;4.90;99.90
20457;DHT22;10387;51.102;6.848;2023-03-12T10:24:34;5.00;99.90
20457;DHT22;10387;51.102;6.848;2023-03-12T10:27:11;5.10;99.90
20457;DHT22;10387;51.102;6.848;2023-03-12T10:29:40;5.20;99.90
20457;DHT22;10387;51.102;6.848;2023-03-12T10:34:36;5.10;99.90
20457;DHT22;10387;51.102;6.848;2023-03-12T10:37:26;5.10;99.90
20457;DHT22;10387;51.102;6.848;2023-03-12T10:39:54;5.10;99.90
20457;DHT22;10387;51.102;6.848;2023-03-12T10:42:23;5.10;99.90
20457;DHT22;10387;51.102;6.848;2023-03-12T10:47:39;5.20;99.90
20457;DHT22;10387;51.102;6.848;2023-03-12T10:50:23;5.30;99.90
20457;DHT22;10387;51.102;6.848;2023-03-12T10:55:41;5.40;99.90
20457;DHT22;10387;51.102;6.848;2023-03-12T10:58:21;5.40;99.90
20457;DHT22;10387;51.102;6.848;2023-03-12T11:00:55;5.50;99.90
20457;DHT22;10387;51.102;6.848;2023-03-12T11:03:25;5.60;99.90
20457;DHT22;10387;51.102;6.848;2023-03-12T11:11:55;5.70;99.90
20457;DHT22;10387;51.102;6.848;2023-03-12T11:14:29;5.80;99.90
20457;DHT22;10387;51.102;6.848;2023-03-12T11:17:00;5.90;99.90
20457;DHT22;10387;51.102;6.848;2023-03-12T11:19:46;6.00;99.90
20457;DHT22;10387;51.102;6.848;2023-03-12T11:22:32;6.00;99.90
20457;DHT22;10387;51.102;6.848;2023-03-12T11:25:26;6.10;99.90
20457;DHT22;10387;51.102;6.848;2023-03-12T11:27:59;6.20;99.90
20457;DHT22;10387;51.102;6.848;2023-03-12T11:30:38;6.30;99.90
20457;DHT22;10387;51.102;6.848;2023-03-12T11:33:04;6.30;99.90
20457;DHT22;10387;51.102;6.848;2023-03-12T11:38:32;6.50;99.90
20457;DHT22;10387;51.102;6.848;2023-03-12T11:44:40;6.80;99.90
20457;DHT22;10387;51.102;6.848;2023-03-12T11:47:25;7.00;99.90
20457;DHT22;10387;51.102;6.848;2023-03-12T11:53:36;7.40;99.90
20457;DHT22;10387;51.102;6.848;2023-03-12T11:56:33;7.50;99.90
20457;DHT22;10387;51.102;6.848;2023-03-12T12:02:10;7.90;99.90
20457;DHT22;10387;51.102;6.848;2023-03-12T12:07:46;8.50;99.90
20457;DHT22;10387;51.102;6.848;2023-03-12T12:26:09;10.10;99.90
20457;DHT22;10387;51.102;6.848;2023-03-12T12:32:03;10.70;99.90
20457;DHT22;10387;51.102;6.848;2023-03-12T12:35:13;11.00;99.90
20457;DHT22;10387;51.102;6.848;2023-03-12T12:40:20;11.10;99.90
20457;DHT22;10387;51.102;6.848;2023-03-12T12:46:05;10.80;99.90
20457;DHT22;10387;51.102;6.848;2023-03-12T12:49:22;10.90;99.90
20457;DHT22;10387;51.102;6.848;2023-03-12T12:52:21;11.20;99.90
20457;DHT22;10387;51.102;6.848;2023-03-12T13:00:50;11.50;99.90
20457;DHT22;10387;51.102;6.848;2023-03-12T13:10:00;11.80;99.90
20457;DHT22;10387;51.102;6.848;2023-03-12T13:13:28;11.70;99.90
20457;DHT22;10387;51.102;6.848;2023-03-12T13:34:48;11.60;99.90
20457;DHT22;10387;51.102;6.848;2023-03-12T13:40:39;12.20;99.90
20457;DHT22;10387;51.102;6.848;2023-03-12T13:54:27;12.10;99.90
20457;DHT22;10387;51.102;6.848;2023-03-12T13:57:04;12.10;99.90
20457;DHT22;10387;51.102;6.848;2023-03-12T13:59:43;12.10;99.90
20457;DHT22;10387;51.102;6.848;2023-03-12T14:02:33;12.40;99.90
20457;DHT22;10387;51.102;6.848;2023-03-12T14:05:09;12.30;99.90
20457;DHT22;10387;51.102;6.848;2023-03-12T14:13:27;12.30;99.90
20457;DHT22;10387;51.102;6.848;2023-03-12T14:18:46;12.30;99.90
20457;DHT22;10387;51.102;6.848;2023-03-12T14:21:15;12.30;99.90
20457;DHT22;10387;51.102;6.848;2023-03-12T14:23:52;12.30;99.90
20457;DHT22;10387;51.102;6.848;2023-03-12T14:26:39;12.20;99.90
20457;DHT22;10387;51.102;6.848;2023-03-12T14:32:03;12.10;99.90
20457;DHT22;10387;51.102;6.848;2023-03-12T14:38:42;12.10;99.90
20457;DHT22;10387;51.102;6.848;2023-03-12T14:43:53;12.00;99.90
20457;DHT22;10387;51.102;6.848;2023-03-12T14:58:31;12.20;99.90
20457;DHT22;10387;51.102;6.848;2023-03-12T15:01:32;12.20;99.90
20457;DHT22;10387;51.102;6.848;2023-03-12T15:04:21;12.20;99.90
20457;DHT22;10387;51.102;6.848;2023-03-12T15:11:06;12.30;99.90
20457;DHT22;10387;51.102;6.848;2023-03-12T15:14:33;12.40;99.90
20457;DHT22;10387;51.102;6.848;2023-03-12T15:20:10;12.60;99.90
20457;DHT22;10387;51.102;6.848;2023-03-12T15:22:41;12.60;99.90
20457;DHT22;10387;51.102;6.848;2023-03-12T15:25:24;12.60;99.90
20457;DHT22;10387;51.102;6.848;2023-03-12T15:33:36;12.50;99.90
20457;DHT22;10387;51.102;6.848;2023-03-12T15:38:45;12.70;99.90
20457;DHT22;10387;51.102;6.848;2023-03-12T15:41:31;12.70;99.90
20457;DHT22;10387;51.102;6.848;2023-03-12T15:43:58;12.70;99.90
20457;DHT22;10387;51.102;6.848;2023-03-12T15:46:25;12.50;99.90
20457;DHT22;10387;51.102;6.848;2023-03-12T15:48:57;12.50;99.90
20457;DHT22;10387;51.102;6.848;2023-03-12T15:51:33;12.40;99.90
20457;DHT22;10387;51.102;6.848;2023-03-12T15:54:26;12.30;99.90
20457;DHT22;10387;51.102;6.848;2023-03-12T15:56:52;12.20;99.90
20457;DHT22;10387;51.102;6.848;2023-03-12T15:59:26;12.20;99.90
20457;DHT22;10387;51.102;6.848;2023-03-12T16:01:54;12.10;99.90
20457;DHT22;10387;51.102;6.848;2023-03-12T16:04:21;12.10;99.90
20457;DHT22;10387;51.102;6.848;2023-03-12T16:06:48;12.00;99.90
20457;DHT22;10387;51.102;6.848;2023-03-12T16:09:19;12.00;99.90
20457;DHT22;10387;51.102;6.848;2023-03-12T16:11:46;12.00;99.90
20457;DHT22;10387;51.102;6.848;2023-03-12T16:14:19;12.00;99.90
20457;DHT22;10387;51.102;6.848;2023-03-12T16:16:46;11.90;99.90
20457;DHT22;10387;51.102;6.848;2023-03-12T16:19:14;11.90;99.90
20457;DHT22;10387;51.102;6.848;2023-03-12T16:21:40;11.90;99.90
20457;DHT22;10387;51.102;6.848;2023-03-12T16:24:08;11.90;99.90
20457;DHT22;10387;51.102;6.848;2023-03-12T16:26:36;11.90;99.90
20457;DHT22;10387;51.102;6.848;2023-03-12T16:29:05;11.90;99.90
20457;DHT22;10387;51.102;6.848;2023-03-12T16:31:31;11.90;99.90
20457;DHT22;10387;51.102;6.848;2023-03-12T16:33:57;11.80;99.90
20457;DHT22;10387;51.102;6.848;2023-03-12T16:36:23;11.80;99.90
20457;DHT22;10387;51.102;6.848;2023-03-12T16:38:48;11.70;99.90
20457;DHT22;10387;51.102;6.848;2023-03-12T16:41:18;11.70;99.90
20457;DHT22;10387;51.102;6.848;2023-03-12T16:43:47;11.70;99.90
20457;DHT22;10387;51.102;6.848;2023-03-12T16:46:15;11.60;99.90
20457;DHT22;10387;51.102;6.848;2023-03-12T16:48:43;11.60;99.90
20457;DHT22;10387;51.102;6.848;2023-03-12T16:51:13;11.50;99.90
20457;DHT22;10387;51.102;6.848;2023-03-12T16:53:40;11.50;99.90
20457;DHT22;10387;51.102;6.848;2023-03-12T16:56:06;11.50;99.90
20457;DHT22;10387;51.102;6.848;2023-03-12T16:58:32;11.50;99.90
20457;DHT22;10387;51.102;6.848;2023-03-12T17:00:57;11.50;99.90
20457;DHT22;10387;51.102;6.848;2023-03-12T17:03:36;11.50;99.90
20457;DHT22;10387;51.102;6.848;2023-03-12T17:06:04;11.40;99.90
20457;DHT22;10387;51.102;6.848;2023-03-12T17:08:30;11.50;99.90
20457;DHT22;10387;51.102;6.848;2023-03-12T17:10:57;11.30;99.90
20457;DHT22;10387;51.102;6.848;2023-03-12T17:13:26;11.30;99.90
20457;DHT22;10387;51.102;6.848;2023-03-12T17:15:53;11.20;99.90
20457;DHT22;10387;51.102;6.848;2023-03-12T17:18:19;11.20;99.90
20457;DHT22;10387;51.102;6.848;2023-03-12T17:20:49;11.10;99.90
20457;DHT22;10387;51.102;6.848;2023-03-12T17:23:16;11.10;99.90
20457;DHT22;10387;51.102;6.848;2023-03-12T17:25:43;11.10;99.90
20457;DHT22;10387;51.102;6.848;2023-03-12T17:28:11;11.00;99.90
20457;DHT22;10387;51.102;6.848;2023-03-12T17:30:39;11.00;99.90
20457;DHT22;10387;51.102;6.848;2023-03-12T17:33:14;10.90;99.90
20457;DHT22;10387;51.102;6.848;2023-03-12T17:35:40;10.90;99.90
20457;DHT22;10387;51.102;6.848;2023-03-12T17:38:07;10.90;99.90
20457;DHT22;10387;51.102;6.848;2023-03-12T17:40:33;10.80;99.90
20457;DHT22;10387;51.102;6.848;2023-03-12T17:43:01;10.90;99.90
20457;DHT22;10387;51.102;6.848;2023-03-12T17:45:27;10.90;99.90
20457;DHT22;10387;51.102;6.848;2023-03-12T17:47:52;10.90;99.90
20457;DHT22;10387;51.102;6.848;2023-03-12T17:50:20;10.90;99.90
20457;DHT22;10387;51.102;6.848;2023-03-12T17:52:47;10.90;99.90
20457;DHT22;10387;51.102;6.848;2023-03-12T17:55:14;10.90;99.90
20457;DHT22;10387;51.102;6.848;2023-03-12T17:57:41;10.80;99.90
20457;DHT22;10387;51.102;6.848;2023-03-12T18:00:09;10.90;99.90
20457;DHT22;10387;51.102;6.848;2023-03-12T18:02:39;10.80;99.90
20457;DHT22;10387;51.102;6.848;2023-03-12T18:05:06;10.90;99.90
20457;DHT22;10387;51.102;6.848;2023-03-12T18:07:32;10.90;99.90
20457;DHT22;10387;51.102;6.848;2023-03-12T18:09:57;10.80;99.90
20457;DHT22;10387;51.102;6.848;2023-03-12T19:33:48;10.60;99.90
20457;DHT22;10387;51.102;6.848;2023-03-12T19:36:15;10.50;99.90
20457;DHT22;10387;51.102;6.848;2023-03-12T19:38:41;10.60;99.90
20457;DHT22;10387;51.102;6.848;2023-03-12T19:41:07;10.60;99.90
20457;DHT22;10387;51.102;6.848;2023-03-12T19:43:33;10.60;99.90
20457;DHT22;10387;51.102;6.848;2023-03-12T19:45:59;10.60;99.90
20457;DHT22;10387;51.102;6.848;2023-03-12T19:48:25;10.60;99.90
20457;DHT22;10387;51.102;6.848;2023-03-12T19:50:51;10.60;99.90
20457;DHT22;10387;51.102;6.848;2023-03-12T19:53:18;10.60;99.90
20457;DHT22;10387;51.102;6.848;2023-03-12T19:55:48;10.60;99.90
20457;DHT22;10387;51.102;6.848;2023-03-12T19:58:14;10.60;99.90
20457;DHT22;10387;51.102;6.848;2023-03-12T20:00:41;10.70;99.90
20457;DHT22;10387;51.102;6.848;2023-03-12T20:03:08;10.60;99.90
20457;DHT22;10387;51.102;6.848;2023-03-12T20:05:34;10.60;99.90
20457;DHT22;10387;51.102;6.848;2023-03-12T20:08:01;10.60;99.90
20457;DHT22;10387;51.102;6.848;2023-03-12T20:10:27;10.60;99.90